createdAt,value
2019-03-20T00:02:11.750Z,69.21
2019-03-20T00:04:49.741Z,69.21
2019-03-20T00:07:18.895Z,69.23
2019-03-20T00:09:49.497Z,69.23
2019-03-20T00:12:19.948Z,69.23
2019-03-20T00:14:50.796Z,69.24
2019-03-20T00:17:21.789Z,69.21
2019-03-20T00:19:52.393Z,69.25
2019-03-20T00:22:22.900Z,69.27
2019-03-20T00:24:56.592Z,69.25
2019-03-20T00:27:28.435Z,69.25
2019-03-20T00:29:58.826Z,69.26
2019-03-20T00:32:29.253Z,69.28
2019-03-20T00:35:01.117Z,69.24
2019-03-20T00:37:32.217Z,69.24
2019-03-20T00:40:05.351Z,69.26
2019-03-20T00:42:35.835Z,69.23
2019-03-20T00:45:07.624Z,69.25
2019-03-20T00:47:38.236Z,69.27
2019-03-20T00:50:11.422Z,69.29
2019-03-20T00:52:44.538Z,69.29
2019-03-20T00:55:15.560Z,69.28
2019-03-20T00:57:46.080Z,69.27
2019-03-20T01:00:19.103Z,69.27
2019-03-20T01:02:50.006Z,69.28
2019-03-20T01:05:22.674Z,69.30
2019-03-20T01:07:54.739Z,69.29
2019-03-20T01:10:28.550Z,69.30
2019-03-20T01:12:58.928Z,69.28
2019-03-20T01:15:29.330Z,69.29
2019-03-20T01:18:01.621Z,69.29
2019-03-20T01:20:32.066Z,69.29
2019-03-20T01:23:02.394Z,69.32
2019-03-20T01:25:35.081Z,69.30
2019-03-20T01:28:05.157Z,69.31
2019-03-20T01:30:37.029Z,69.32
2019-03-20T01:33:09.142Z,69.31
2019-03-20T01:35:39.970Z,69.32
2019-03-20T01:38:10.429Z,69.31
2019-03-20T01:40:41.579Z,69.35
2019-03-20T01:43:11.977Z,69.33
2019-03-20T01:45:42.446Z,69.31
2019-03-20T01:48:13.127Z,69.33
2019-03-20T01:50:45.105Z,69.36
2019-03-20T01:53:16.181Z,69.37
2019-03-20T01:55:46.619Z,69.38
2019-03-20T01:58:17.077Z,69.38
2019-03-20T02:00:50.173Z,69.37
2019-03-20T02:03:20.831Z,69.38
2019-03-20T02:05:51.387Z,69.38
2019-03-20T02:08:21.967Z,69.40
2019-03-20T02:10:52.508Z,69.42
2019-03-20T02:13:22.953Z,69.43
2019-03-20T02:15:53.903Z,69.46
2019-03-20T02:18:24.973Z,69.47
2019-03-20T02:20:56.320Z,69.50
2019-03-20T02:23:26.856Z,69.54
2019-03-20T02:25:59.386Z,69.56
2019-03-20T02:28:47.824Z,69.55
2019-03-20T02:31:18.363Z,69.57
2019-03-20T02:33:48.827Z,69.58
2019-03-20T02:36:19.751Z,69.60
2019-03-20T02:38:50.437Z,69.64
2019-03-20T02:41:20.932Z,69.63
2019-03-20T02:43:53.721Z,69.66
2019-03-20T02:46:24.425Z,69.67
2019-03-20T02:48:56.400Z,69.71
2019-03-20T02:51:28.571Z,69.72
2019-03-20T02:54:00.094Z,69.74
2019-03-20T02:56:30.955Z,69.75
2019-03-20T02:59:05.466Z,69.75
2019-03-20T03:01:48.368Z,69.78
2019-03-20T03:04:19.985Z,69.77
2019-03-20T03:06:50.617Z,69.80
2019-03-20T03:09:21.989Z,69.82
2019-03-20T03:11:53.641Z,69.85
2019-03-20T03:14:42.471Z,69.85
2019-03-20T03:17:13.503Z,69.85
2019-03-20T03:19:48.175Z,69.89
2019-03-20T03:22:19.222Z,69.90
2019-03-20T03:24:49.935Z,69.92
2019-03-20T03:27:40.801Z,69.92
2019-03-20T03:30:13.614Z,69.94
2019-03-20T03:32:48.231Z,69.95
2019-03-20T03:35:20.239Z,70.00
2019-03-20T03:37:56.894Z,70.03
2019-03-20T03:40:32.497Z,70.04
2019-03-20T03:43:03.124Z,70.07
2019-03-20T03:45:33.777Z,70.09
2019-03-20T03:48:13.745Z,70.10
2019-03-20T03:50:48.150Z,70.10
2019-03-20T03:53:17.539Z,70.12
2019-03-20T03:55:50.035Z,70.12
2019-03-20T03:58:33.236Z,70.14
2019-03-20T04:01:10.833Z,70.14
2019-03-20T04:04:13.840Z,70.18
2019-03-20T04:06:46.854Z,70.21
2019-03-20T04:09:25.680Z,70.21
2019-03-20T04:11:58.643Z,70.24
2019-03-20T04:14:35.388Z,70.23
2019-03-20T04:17:30.577Z,70.25
2019-03-20T04:20:28.286Z,70.26
2019-03-20T04:23:26.559Z,70.26
2019-03-20T04:26:32.322Z,70.27
2019-03-20T04:29:13.549Z,70.29
2019-03-20T04:31:48.320Z,70.30
2019-03-20T04:34:20.713Z,70.27
2019-03-20T04:36:55.181Z,70.30
2019-03-20T04:39:38.227Z,70.31
2019-03-20T04:42:46.072Z,70.33
2019-03-20T04:45:28.422Z,70.33
2019-03-20T04:48:19.287Z,70.33
2019-03-20T04:51:33.229Z,70.35
2019-03-20T04:54:24.340Z,70.35
2019-03-20T05:00:39.350Z,70.37
2019-03-20T05:04:10.805Z,70.39
2019-03-20T05:09:28.560Z,70.40
2019-03-20T05:15:10.683Z,70.43
2019-03-20T05:18:07.809Z,70.45
2019-03-20T05:20:42.373Z,70.44
2019-03-20T05:29:48.716Z,70.48
2019-03-20T05:32:31.884Z,70.48
2019-03-20T05:35:21.559Z,70.48
2019-03-20T05:38:06.459Z,70.50
2019-03-20T05:40:40.010Z,70.52
2019-03-20T05:43:21.751Z,70.54
2019-03-20T05:45:55.878Z,70.54
2019-03-20T05:48:34.462Z,70.54
2019-03-20T05:51:27.537Z,70.56
2019-03-20T05:56:55.770Z,70.62
2019-03-20T05:59:32.554Z,70.64
2019-03-20T06:02:11.245Z,70.67
2019-03-20T06:05:36.075Z,70.70
2019-03-20T06:08:31.327Z,70.69
2019-03-20T06:11:09.524Z,70.70
2019-03-20T06:13:59.104Z,70.72
2019-03-20T06:17:11.145Z,70.72
2019-03-20T06:19:41.811Z,70.74
2019-03-20T06:22:22.549Z,70.76
2019-03-20T06:24:56.271Z,70.77
2019-03-20T06:27:26.201Z,70.81
2019-03-20T06:29:58.469Z,70.82
2019-03-20T06:32:29.479Z,70.83
2019-03-20T06:35:00.429Z,70.83
2019-03-20T06:37:33.463Z,70.84
2019-03-20T06:40:04.384Z,70.85
2019-03-20T06:42:56.438Z,70.84
2019-03-20T06:45:40.622Z,70.86
2019-03-20T06:48:11.147Z,70.73
2019-03-20T06:50:44.467Z,70.73
2019-03-20T06:53:15.440Z,70.88
2019-03-20T06:55:46.567Z,70.88
2019-03-20T06:58:16.988Z,70.87
2019-03-20T07:01:14.717Z,70.87
2019-03-20T07:04:20.917Z,70.82
2019-03-20T07:07:19.953Z,70.86
2019-03-20T07:10:21.032Z,70.85
2019-03-20T07:12:51.843Z,70.87
2019-03-20T07:15:22.463Z,70.86
2019-03-20T07:17:52.926Z,70.85
2019-03-20T07:20:24.001Z,70.87
2019-03-20T07:23:03.379Z,70.87
2019-03-20T07:25:36.094Z,70.92
2019-03-20T07:28:08.455Z,70.91
2019-03-20T07:30:42.695Z,70.90
2019-03-20T07:33:13.465Z,70.93
2019-03-20T07:35:44.676Z,70.94
2019-03-20T07:38:21.978Z,70.99
2019-03-20T07:40:48.818Z,71.10
2019-03-20T07:43:20.035Z,71.10
2019-03-20T07:45:52.643Z,71.03
2019-03-20T07:48:24.796Z,71.03
2019-03-20T07:50:56.690Z,71.03
2019-03-20T07:53:29.546Z,70.91
2019-03-20T07:56:02.561Z,71.04
2019-03-20T07:58:35.951Z,71.03
2019-03-20T08:01:06.463Z,71.07
2019-03-20T08:03:38.103Z,71.07
2019-03-20T08:06:11.562Z,71.11
2019-03-20T08:08:42.573Z,71.09
2019-03-20T08:11:13.396Z,71.14
2019-03-20T08:13:45.394Z,71.15
2019-03-20T08:16:16.893Z,71.15
2019-03-20T08:19:25.744Z,71.17
2019-03-20T08:24:36.876Z,71.22
2019-03-20T08:27:28.738Z,71.27
2019-03-20T08:29:59.598Z,71.29
2019-03-20T08:32:30.409Z,71.29
2019-03-20T08:35:01.731Z,71.29
2019-03-20T08:37:34.565Z,71.31
2019-03-20T08:40:06.323Z,71.33
2019-03-20T08:42:39.020Z,71.36
2019-03-20T08:45:11.444Z,71.36
2019-03-20T08:47:43.579Z,71.39
2019-03-20T08:50:18.447Z,71.40
2019-03-20T08:52:48.899Z,71.41
2019-03-20T08:55:21.228Z,71.44
2019-03-20T08:57:51.820Z,71.44
2019-03-20T09:00:22.804Z,71.49
2019-03-20T09:02:57.300Z,71.50
2019-03-20T09:05:30.680Z,71.51
2019-03-20T09:08:01.324Z,71.51
2019-03-20T09:10:31.679Z,71.51
2019-03-20T09:13:02.742Z,71.53
2019-03-20T09:15:33.443Z,71.55
2019-03-20T09:18:07.617Z,71.55
2019-03-20T09:20:38.288Z,71.58
2019-03-20T09:23:09.077Z,71.59
2019-03-20T09:25:39.472Z,71.62
2019-03-20T09:28:09.955Z,71.62
2019-03-20T09:30:40.521Z,71.63
2019-03-20T09:33:10.866Z,71.64
2019-03-20T09:35:41.541Z,71.65
2019-03-20T09:38:14.315Z,71.66
2019-03-20T09:40:45.890Z,71.67
2019-03-20T09:43:17.055Z,71.70
2019-03-20T09:45:47.805Z,71.74
2019-03-20T09:48:18.238Z,71.73
2019-03-20T09:50:48.684Z,71.78
2019-03-20T09:53:22.768Z,71.82
2019-03-20T09:55:54.423Z,71.85
2019-03-20T09:58:24.938Z,71.86
2019-03-20T10:00:55.264Z,71.90
2019-03-20T10:03:25.777Z,71.90
2019-03-20T10:05:58.646Z,71.93
2019-03-20T10:08:29.151Z,71.93
2019-03-20T10:11:12.706Z,71.93
2019-03-20T10:13:43.125Z,71.93
2019-03-20T10:16:13.501Z,71.96
2019-03-20T10:18:44.399Z,71.98
2019-03-20T10:21:14.782Z,72.01
2019-03-20T10:23:45.162Z,72.03
2019-03-20T10:26:15.670Z,72.04
2019-03-20T10:28:48.929Z,72.07
2019-03-20T10:31:19.606Z,72.11
2019-03-20T10:33:49.975Z,72.14
2019-03-20T10:36:20.387Z,72.15
2019-03-20T10:38:50.953Z,72.17
2019-03-20T10:41:22.272Z,72.21
2019-03-20T10:43:52.595Z,72.29
2019-03-20T10:46:22.963Z,72.33
2019-03-20T10:48:56.337Z,72.35
2019-03-20T10:51:30.440Z,72.38
2019-03-20T10:54:00.813Z,72.45
2019-03-20T10:56:41.009Z,72.50
2019-03-20T10:59:11.525Z,72.54
2019-03-20T11:01:42.988Z,72.58
2019-03-20T11:04:18.993Z,72.60
2019-03-20T11:06:49.330Z,72.63
2019-03-20T11:09:19.872Z,72.65
2019-03-20T11:11:50.242Z,72.65
2019-03-20T11:14:20.769Z,72.67
2019-03-20T11:16:51.365Z,72.67
2019-03-20T11:19:32.057Z,72.72
2019-03-20T11:22:02.946Z,72.72
2019-03-20T11:24:33.411Z,72.70
2019-03-20T11:27:06.308Z,72.70
2019-03-20T11:29:37.353Z,72.74
2019-03-20T11:32:08.116Z,72.77
2019-03-20T11:34:41.810Z,72.81
2019-03-20T11:37:13.981Z,72.81
2019-03-20T11:39:44.618Z,72.84
2019-03-20T11:42:18.228Z,72.89
2019-03-20T11:44:50.028Z,72.92
2019-03-20T11:47:22.401Z,72.95
2019-03-20T11:49:53.344Z,73.01
2019-03-20T11:52:24.112Z,73.07
2019-03-20T11:54:54.783Z,73.14
2019-03-20T11:57:25.736Z,73.15
2019-03-20T12:02:58.475Z,73.33
2019-03-20T12:05:35.353Z,73.35
2019-03-20T12:08:42.594Z,73.43
2019-03-20T12:11:30.397Z,73.41
2019-03-20T12:14:21.707Z,73.43
2019-03-20T12:49:45.385Z,74.19
2019-03-20T12:55:35.911Z,74.32
2019-03-20T12:58:34.853Z,74.23
2019-03-20T13:01:28.380Z,74.33
2019-03-20T13:03:59.560Z,74.35
2019-03-20T13:09:59.570Z,74.14
2019-03-20T13:19:59.269Z,74.21
2019-03-20T13:48:15.195Z,74.65
2019-03-20T13:51:44.506Z,74.65
2019-03-20T14:10:24.535Z,74.67
2019-03-20T14:16:58.314Z,74.67
2019-03-20T14:20:11.078Z,74.80
2019-03-20T14:23:15.753Z,74.70
2019-03-20T15:19:18.043Z,72.98
2019-03-20T15:25:05.056Z,72.69
2019-03-20T15:31:32.721Z,72.52
2019-03-20T15:41:36.924Z,72.39
2019-03-20T15:45:02.141Z,72.24
2019-03-20T15:51:33.998Z,71.91
2019-03-20T15:54:44.899Z,71.75
2019-03-20T15:57:37.626Z,71.65
2019-03-20T16:10:38.689Z,71.18
2019-03-20T16:20:46.400Z,70.91
2019-03-20T16:23:15.666Z,70.85
2019-03-20T16:26:16.827Z,70.76
2019-03-20T16:34:37.136Z,70.53
2019-03-20T16:37:46.507Z,70.48
2019-03-20T16:43:58.742Z,70.30
2019-03-20T16:46:40.674Z,70.22
2019-03-20T16:49:52.092Z,70.17
2019-03-20T16:52:34.346Z,70.11
2019-03-20T16:55:23.664Z,70.04
2019-03-20T16:58:23.709Z,69.98
2019-03-20T17:03:05.582Z,69.93
2019-03-20T17:05:25.582Z,69.87
2019-03-20T17:08:33.173Z,69.80
2019-03-20T17:11:34.468Z,69.72
2019-03-20T17:17:21.525Z,69.61
2019-03-20T17:20:09.297Z,69.59
2019-03-20T17:22:59.347Z,69.54
2019-03-20T17:25:51.991Z,69.51
2019-03-20T17:28:35.763Z,69.49
2019-03-20T17:31:07.347Z,69.43
2019-03-20T17:33:53.195Z,69.42
2019-03-20T17:36:39.073Z,69.39
2019-03-20T17:39:13.677Z,69.35
2019-03-20T17:41:45.038Z,69.30
2019-03-20T17:44:19.519Z,69.26
2019-03-20T17:47:04.019Z,69.25
2019-03-20T17:49:46.981Z,69.23
2019-03-20T17:52:24.596Z,69.19
2019-03-20T17:54:56.265Z,69.17
2019-03-20T17:57:36.455Z,69.17
2019-03-20T18:00:23.467Z,69.13
2019-03-20T18:03:00.748Z,69.13
2019-03-20T18:21:21.840Z,69.01
2019-03-20T18:24:12.314Z,68.98
2019-03-20T18:27:14.243Z,68.93
2019-03-20T18:30:06.443Z,68.92
2019-03-20T18:33:33.797Z,68.89
2019-03-20T18:36:25.505Z,68.89
2019-03-20T18:39:38.789Z,68.86
2019-03-20T18:45:24.502Z,68.83
2019-03-20T18:48:10.807Z,68.78
2019-03-20T18:55:05.829Z,68.75
2019-03-20T19:27:33.621Z,68.48
2019-03-20T19:30:46.590Z,68.47
2019-03-20T19:33:47.839Z,68.46
2019-03-20T19:37:03.770Z,68.45
2019-03-20T19:50:43.741Z,68.36
2019-03-20T19:54:58.254Z,68.36
2019-03-20T20:03:06.510Z,68.37
2019-03-20T20:05:54.422Z,68.35
2019-03-20T20:11:24.717Z,68.29
2019-03-20T20:17:40.863Z,68.23
2019-03-20T20:53:09.991Z,68.00
2019-03-20T20:56:25.842Z,68.02
2019-03-20T20:59:25.967Z,68.01
2019-03-20T21:05:45.309Z,68.03
2019-03-20T21:08:48.878Z,68.06
2019-03-20T21:12:03.050Z,68.07
2019-03-20T21:14:39.038Z,68.11
2019-03-20T21:17:19.990Z,68.13
2019-03-20T21:20:05.349Z,68.12
2019-03-20T21:23:27.836Z,68.17
2019-03-20T21:26:05.758Z,68.21
2019-03-20T21:29:14.919Z,68.24
2019-03-20T21:32:05.741Z,68.29
2019-03-20T21:35:19.870Z,68.34
2019-03-20T21:38:06.585Z,68.37
2019-03-20T21:41:06.521Z,68.37
2019-03-20T21:44:22.994Z,68.34
2019-03-20T21:47:32.447Z,68.34
2019-03-20T21:50:50.737Z,68.30
2019-03-20T21:53:35.565Z,68.26
2019-03-20T21:56:27.053Z,68.26
2019-03-20T21:59:15.249Z,68.28
2019-03-20T22:02:25.424Z,68.30
2019-03-20T22:04:56.876Z,68.33
2019-03-20T22:07:28.069Z,68.35
2019-03-20T22:10:37.852Z,68.39
2019-03-20T22:13:29.270Z,68.42
2019-03-20T22:16:45.749Z,68.44
2019-03-20T22:19:57.184Z,68.53
2019-03-20T22:23:09.764Z,68.55
2019-03-20T22:26:23.957Z,68.55
2019-03-20T22:29:54.025Z,68.54
2019-03-20T22:33:10.292Z,68.58
2019-03-20T22:36:18.329Z,68.58
2019-03-20T22:40:03.597Z,68.60
2019-03-20T22:43:08.804Z,68.62
2019-03-20T22:46:34.085Z,68.69
2019-03-20T22:49:19.532Z,68.71
2019-03-20T22:52:29.331Z,68.74
2019-03-20T22:58:34.907Z,68.75
2019-03-20T23:01:39.889Z,68.77
2019-03-20T23:05:26.629Z,68.78
2019-03-20T23:28:59.069Z,68.86
2019-03-20T23:31:26.271Z,68.86
2019-03-20T23:36:59.891Z,68.85
2019-03-20T23:40:01.152Z,68.85
2019-03-20T23:52:38.531Z,68.89
2019-03-20T23:56:06.350Z,68.89
2019-03-20T23:58:33.068Z,68.87
